Time;durP1;ratioP1;P1;durP2;ratioP2;P2;SDS_P1;SDS_P2;PMS_P1;PMS_P2;Temp;Humidity;BMP_temperature;BMP_pressure;BME280_temperature;BME280_humidity;BME280_pressure;Samples;Min_cycle;Max_cycle;Signal;HPM_P1;HPM_P2
2023/05/25 00:00:47;;;;;;;19.23;9.43;;;;;;;;;;5016898;28;20099;-76
2023/05/25 00:03:13;;;;;;;17.65;8.70;;;;;;;;;;5042592;28;20116;-76
2023/05/25 00:05:40;;;;;;;17.20;8.82;;;;;;;;;;5037888;28;20090;-76
2023/05/25 00:08:06;;;;;;;18.52;8.80;;;;;;;;;;5054960;28;20109;-76
2023/05/25 00:10:32;;;;;;;15.68;8.35;;;;;;;;;;5055087;28;20045;-76
2023/05/25 00:12:58;;;;;;;16.20;8.90;;;;;;;;;;5036767;28;20064;-76
2023/05/25 00:15:24;;;;;;;14.98;8.30;;;;;;;;;;5055096;28;20049;-76
2023/05/25 00:17:53;;;;;;;14.88;8.32;;;;;;;;;;5054814;28;20103;-76
2023/05/25 00:20:19;;;;;;;13.57;7.60;;;;;;;;;;5053403;28;20045;-76
2023/05/25 00:22:45;;;;;;;16.58;8.10;;;;;;;;;;5036786;28;20492;-76
2023/05/25 00:25:11;;;;;;;15.07;8.75;;;;;;;;;;5054790;28;20048;-76
2023/05/25 00:27:37;;;;;;;17.13;8.65;;;;;;;;;;5036664;28;20045;-76
2023/05/25 00:30:04;;;;;;;15.25;7.85;;;;;;;;;;5037075;28;20372;-76
2023/05/25 00:32:30;;;;;;;15.77;8.20;;;;;;;;;;5054472;28;20091;-76
2023/05/25 00:34:56;;;;;;;16.77;8.75;;;;;;;;;;5054247;28;20045;-76
2023/05/25 00:37:22;;;;;;;19.50;8.77;;;;;;;;;;5036699;28;20055;-76
2023/05/25 00:39:48;;;;;;;13.50;8.30;;;;;;;;;;5036730;28;20056;-76
2023/05/25 00:42:15;;;;;;;12.90;8.45;;;;;;;;;;5036362;28;20041;-76
2023/05/25 00:44:41;;;;;;;21.13;9.85;;;;;;;;;;5054533;28;20048;-76
2023/05/25 00:47:07;;;;;;;16.83;9.88;;;;;;;;;;5054530;28;20364;-76
2023/05/25 00:49:35;;;;;;;18.83;10.23;;;;;;;;;;5036432;28;20048;-76
2023/05/25 00:52:02;;;;;;;18.33;10.48;;;;;;;;;;5054489;28;20049;-76
2023/05/25 00:54:28;;;;;;;16.10;9.88;;;;;;;;;;5054329;28;20052;-76
2023/05/25 00:57:03;;;;;;;17.80;10.00;;;;;;;;;;5054568;28;20040;-76
2023/05/25 00:59:39;;;;;;;20.90;10.77;;;;;;;;;;5054264;28;20407;-76
2023/05/25 01:02:07;;;;;;;16.17;10.60;;;;;;;;;;5050879;28;20475;-76
2023/05/25 01:04:34;;;;;;;19.02;10.15;;;;;;;;;;5024844;28;20094;-76
2023/05/25 01:07:02;;;;;;;20.50;11.25;;;;;;;;;;5053738;28;20041;-76
2023/05/25 01:09:30;;;;;;;22.15;11.38;;;;;;;;;;5054196;28;20048;-76
2023/05/25 01:11:56;;;;;;;18.27;10.63;;;;;;;;;;5059571;28;20067;-77
2023/05/25 01:14:23;;;;;;;19.60;10.68;;;;;;;;;;5055964;28;20048;-76
2023/05/25 01:16:50;;;;;;;17.95;9.98;;;;;;;;;;5056247;28;20049;-76
2023/05/25 01:19:17;;;;;;;16.98;9.80;;;;;;;;;;5056228;28;20445;-76
2023/05/25 01:22:02;;;;;;;19.33;9.73;;;;;;;;;;5055864;28;20402;-76
2023/05/25 01:24:33;;;;;;;21.42;10.05;;;;;;;;;;5055787;28;20054;-76
2023/05/25 01:27:03;;;;;;;19.23;10.43;;;;;;;;;;5073743;28;20037;-78
2023/05/25 01:29:30;;;;;;;20.13;10.27;;;;;;;;;;5056009;28;20053;-77
2023/05/25 01:31:57;;;;;;;21.02;10.70;;;;;;;;;;5073688;28;20041;-77
2023/05/25 01:34:24;;;;;;;17.48;10.57;;;;;;;;;;5055551;28;20041;-76
2023/05/25 01:36:50;;;;;;;17.38;10.35;;;;;;;;;;5055898;28;20076;-76
2023/05/25 01:39:21;;;;;;;22.27;11.13;;;;;;;;;;5073476;28;20050;-76
2023/05/25 01:41:47;;;;;;;19.17;10.70;;;;;;;;;;5073595;28;20123;-76
2023/05/25 01:44:13;;;;;;;19.13;10.43;;;;;;;;;;5055347;28;20474;-76
2023/05/25 01:46:40;;;;;;;21.98;11.18;;;;;;;;;;5073585;28;20044;-76
2023/05/25 01:49:23;;;;;;;21.67;10.13;;;;;;;;;;5071493;28;20055;-76
2023/05/25 01:51:56;;;;;;;19.80;10.05;;;;;;;;;;5015893;28;20056;-76
2023/05/25 01:54:25;;;;;;;23.15;10.82;;;;;;;;;;5033381;28;20522;-76
2023/05/25 01:56:52;;;;;;;22.45;10.43;;;;;;;;;;5033412;28;20137;-76
2023/05/25 01:59:19;;;;;;;20.80;11.10;;;;;;;;;;5023994;28;20041;-77
2023/05/25 02:01:46;;;;;;;23.90;11.70;;;;;;;;;;5053724;28;20045;-76
2023/05/25 02:04:12;;;;;;;18.15;10.32;;;;;;;;;;5053163;28;20129;-76
2023/05/25 02:06:38;;;;;;;15.60;9.80;;;;;;;;;;5053130;28;20578;-76
2023/05/25 02:09:05;;;;;;;18.10;9.48;;;;;;;;;;5054144;28;20147;-77
2023/05/25 02:11:31;;;;;;;16.23;9.60;;;;;;;;;;5056654;28;20063;-76
2023/05/25 02:13:57;;;;;;;15.82;9.07;;;;;;;;;;5058012;28;20088;-75
2023/05/25 02:16:23;;;;;;;17.42;9.40;;;;;;;;;;5055233;28;20049;-75
2023/05/25 02:18:49;;;;;;;14.00;8.38;;;;;;;;;;5035111;28;20128;-75
2023/05/25 02:21:15;;;;;;;16.30;8.75;;;;;;;;;;5035279;28;20056;-76
2023/05/25 02:23:42;;;;;;;17.58;9.73;;;;;;;;;;5054556;28;20131;-76
2023/05/25 02:26:08;;;;;;;21.98;10.23;;;;;;;;;;5057374;28;20045;-76
2023/05/25 02:28:34;;;;;;;19.02;9.82;;;;;;;;;;5057246;28;20152;-76
2023/05/25 02:31:00;;;;;;;18.33;9.52;;;;;;;;;;5039120;28;20040;-76
2023/05/25 02:33:26;;;;;;;18.63;10.40;;;;;;;;;;5057200;28;20049;-77
2023/05/25 02:35:52;;;;;;;19.45;10.27;;;;;;;;;;5056712;28;20088;-76
2023/05/25 02:38:18;;;;;;;16.70;10.27;;;;;;;;;;5057224;28;20049;-76
2023/05/25 02:40:45;;;;;;;21.52;10.65;;;;;;;;;;5056373;28;20403;-76
2023/05/25 02:43:11;;;;;;;19.92;10.80;;;;;;;;;;5056094;28;20041;-76
2023/05/25 02:45:37;;;;;;;20.00;11.75;;;;;;;;;;5056832;28;20115;-76
2023/05/25 02:48:03;;;;;;;17.10;10.20;;;;;;;;;;5056703;28;20492;-76
2023/05/25 02:50:29;;;;;;;21.27;11.60;;;;;;;;;;5043998;28;20358;-77
2023/05/25 02:52:55;;;;;;;25.23;12.65;;;;;;;;;;5019245;28;20058;-76
2023/05/25 02:55:21;;;;;;;20.23;12.18;;;;;;;;;;5018937;28;20051;-76
2023/05/25 02:57:47;;;;;;;25.83;13.07;;;;;;;;;;5019214;28;20068;-76
2023/05/25 03:00:14;;;;;;;20.63;12.45;;;;;;;;;;5036293;28;20056;-76
2023/05/25 03:02:40;;;;;;;21.35;12.52;;;;;;;;;;5036776;28;20084;-76
2023/05/25 03:05:07;;;;;;;20.98;12.63;;;;;;;;;;5036510;28;20046;-76
2023/05/25 03:07:33;;;;;;;24.92;13.07;;;;;;;;;;5035694;28;20121;-76
2023/05/25 03:09:59;;;;;;;21.73;13.32;;;;;;;;;;5036382;28;20045;-76
2023/05/25 03:12:25;;;;;;;23.42;12.43;;;;;;;;;;5047692;28;20052;-76
2023/05/25 03:14:51;;;;;;;21.08;12.13;;;;;;;;;;5056186;28;20150;-77
2023/05/25 03:17:17;;;;;;;23.23;12.65;;;;;;;;;;5038341;28;20140;-76
2023/05/25 03:19:43;;;;;;;23.23;12.93;;;;;;;;;;5056339;28;20047;-76
2023/05/25 03:22:09;;;;;;;24.67;12.63;;;;;;;;;;5056339;28;20040;-76
2023/05/25 03:24:40;;;;;;;19.60;11.68;;;;;;;;;;5056062;28;20511;-76
2023/05/25 03:27:07;;;;;;;20.15;11.55;;;;;;;;;;5056117;28;20476;-77
2023/05/25 03:29:33;;;;;;;23.25;12.77;;;;;;;;;;5055750;28;20047;-76
2023/05/25 03:31:59;;;;;;;22.92;12.18;;;;;;;;;;5056432;28;20132;-76
2023/05/25 03:34:25;;;;;;;19.23;11.77;;;;;;;;;;5037564;28;20139;-76
2023/05/25 03:36:53;;;;;;;23.15;13.07;;;;;;;;;;5037279;28;20434;-76
2023/05/25 03:39:21;;;;;;;23.35;12.18;;;;;;;;;;5055156;28;20045;-76
2023/05/25 03:41:47;;;;;;;20.05;11.35;;;;;;;;;;5055642;28;20507;-76
2023/05/25 03:44:13;;;;;;;19.55;10.68;;;;;;;;;;5055507;28;20037;-76
2023/05/25 03:46:39;;;;;;;16.38;10.82;;;;;;;;;;5055175;28;20041;-76
2023/05/25 03:49:05;;;;;;;21.23;10.05;;;;;;;;;;5037985;28;20048;-76
2023/05/25 03:51:31;;;;;;;19.08;11.07;;;;;;;;;;5037779;28;20045;-76
2023/05/25 03:53:57;;;;;;;25.90;11.93;;;;;;;;;;5055428;28;20041;-76
2023/05/25 03:56:23;;;;;;;19.63;11.40;;;;;;;;;;5021107;28;20080;-76
2023/05/25 03:58:51;;;;;;;20.75;11.05;;;;;;;;;;5055047;28;20033;-76
2023/05/25 04:01:17;;;;;;;19.73;10.07;;;;;;;;;;5021159;28;20111;-76
2023/05/25 04:03:43;;;;;;;15.75;10.48;;;;;;;;;;5037511;28;20052;-76
2023/05/25 04:06:10;;;;;;;24.33;10.27;;;;;;;;;;5055132;28;20052;-76
2023/05/25 04:08:36;;;;;;;17.73;9.70;;;;;;;;;;5037299;28;20422;-77
2023/05/25 04:11:02;;;;;;;21.80;10.55;;;;;;;;;;5037452;28;20053;-78
2023/05/25 04:13:28;;;;;;;17.08;9.57;;;;;;;;;;5054828;28;20064;-76
2023/05/25 04:15:55;;;;;;;18.77;10.40;;;;;;;;;;5053963;28;20056;-77
2023/05/25 04:18:21;;;;;;;18.80;9.30;;;;;;;;;;5053950;28;20041;-77
2023/05/25 04:20:47;;;;;;;16.00;9.38;;;;;;;;;;5055048;28;20088;-76
2023/05/25 04:23:13;;;;;;;20.05;9.90;;;;;;;;;;5037264;28;20060;-76
2023/05/25 04:25:41;;;;;;;18.77;10.20;;;;;;;;;;5054861;28;20053;-76
2023/05/25 04:28:07;;;;;;;18.17;10.50;;;;;;;;;;5055304;28;20049;-76
2023/05/25 04:30:35;;;;;;;23.35;12.02;;;;;;;;;;5055107;28;20048;-76
2023/05/25 04:33:01;;;;;;;24.83;12.13;;;;;;;;;;5053852;28;20144;-76
2023/05/25 04:35:27;;;;;;;25.35;12.13;;;;;;;;;;5053518;28;20044;-76
2023/05/25 04:37:55;;;;;;;23.10;12.48;;;;;;;;;;5036867;28;20398;-77
2023/05/25 04:40:21;;;;;;;21.35;11.43;;;;;;;;;;5054578;28;20060;-76
2023/05/25 04:42:47;;;;;;;31.52;13.25;;;;;;;;;;5036504;28;20041;-76
2023/05/25 04:45:16;;;;;;;28.60;13.00;;;;;;;;;;5036526;28;20123;-77
2023/05/25 04:47:42;;;;;;;25.48;12.80;;;;;;;;;;5053018;28;20279;-76
2023/05/25 04:50:09;;;;;;;23.13;12.10;;;;;;;;;;5054487;28;20043;-76
2023/05/25 04:52:35;;;;;;;26.75;12.75;;;;;;;;;;5054333;28;20045;-76
2023/05/25 04:55:01;;;;;;;24.83;12.77;;;;;;;;;;5036160;28;20124;-76
2023/05/25 04:57:29;;;;;;;25.88;13.70;;;;;;;;;;5054493;28;20063;-77
2023/05/25 04:59:55;;;;;;;27.85;13.52;;;;;;;;;;5054057;28;20049;-77
2023/05/25 05:02:21;;;;;;;26.02;13.57;;;;;;;;;;5054328;28;20040;-77
2023/05/25 05:04:51;;;;;;;28.02;12.38;;;;;;;;;;5054373;28;20083;-77
2023/05/25 05:07:17;;;;;;;24.50;11.82;;;;;;;;;;5054197;28;20055;-76
2023/05/25 05:09:43;;;;;;;19.02;11.57;;;;;;;;;;5054259;28;20048;-76
2023/05/25 05:12:09;;;;;;;21.60;11.40;;;;;;;;;;5053410;28;20079;-77
2023/05/25 05:14:35;;;;;;;19.40;11.55;;;;;;;;;;5052728;28;20045;-77
2023/05/25 05:17:02;;;;;;;22.92;11.25;;;;;;;;;;5036466;28;20044;-77
2023/05/25 05:19:28;;;;;;;18.65;10.23;;;;;;;;;;5055120;28;20047;-77
2023/05/25 05:21:54;;;;;;;16.75;10.05;;;;;;;;;;5057077;28;20060;-77
2023/05/25 05:24:20;;;;;;;18.70;9.63;;;;;;;;;;5039462;28;20126;-76
2023/05/25 05:26:46;;;;;;;17.73;10.13;;;;;;;;;;5053905;28;20371;-77
2023/05/25 05:29:12;;;;;;;17.65;9.30;;;;;;;;;;5053648;28;20515;-77
2023/05/25 05:31:38;;;;;;;17.77;8.85;;;;;;;;;;5035578;28;20072;-77
2023/05/25 05:34:04;;;;;;;16.42;9.13;;;;;;;;;;5035776;28;20073;-77
2023/05/25 05:36:32;;;;;;;18.77;9.90;;;;;;;;;;5035860;28;20045;-77
2023/05/25 05:38:58;;;;;;;15.07;7.90;;;;;;;;;;5035424;28;20053;-77
2023/05/25 05:41:24;;;;;;;16.48;7.97;;;;;;;;;;5035573;28;20053;-76
2023/05/25 05:43:50;;;;;;;13.98;7.43;;;;;;;;;;5053219;28;20120;-77
2023/05/25 05:46:16;;;;;;;13.85;7.47;;;;;;;;;;5035453;28;20144;-76
2023/05/25 05:48:42;;;;;;;14.52;6.88;;;;;;;;;;5053176;28;20060;-77
2023/05/25 05:51:08;;;;;;;11.95;5.70;;;;;;;;;;5035399;28;20388;-77
2023/05/25 05:53:34;;;;;;;13.95;5.65;;;;;;;;;;5052902;28;20132;-77
2023/05/25 05:56:01;;;;;;;11.70;6.43;;;;;;;;;;5053163;28;20537;-77
2023/05/25 05:58:28;;;;;;;12.35;5.75;;;;;;;;;;5034892;28;20110;-77
2023/05/25 06:00:55;;;;;;;11.27;6.15;;;;;;;;;;5053091;28;20064;-77
2023/05/25 06:03:21;;;;;;;12.93;5.82;;;;;;;;;;5053077;28;20095;-77
2023/05/25 06:05:48;;;;;;;13.68;5.75;;;;;;;;;;5051671;28;20179;-77
2023/05/25 06:08:14;;;;;;;12.25;5.55;;;;;;;;;;5053049;28;20140;-77
2023/05/25 06:10:41;;;;;;;16.15;6.07;;;;;;;;;;5034898;28;20135;-77
2023/05/25 06:13:07;;;;;;;12.13;5.45;;;;;;;;;;5034079;28;20438;-77
2023/05/25 06:15:35;;;;;;;11.27;4.78;;;;;;;;;;5033389;28;20102;-77
2023/05/25 06:18:01;;;;;;;11.18;5.28;;;;;;;;;;5051426;28;20072;-77
2023/05/25 06:20:27;;;;;;;13.57;5.80;;;;;;;;;;5033443;28;20132;-77
2023/05/25 06:22:53;;;;;;;12.43;5.15;;;;;;;;;;5051471;28;20045;-77
2023/05/25 06:25:19;;;;;;;12.27;5.30;;;;;;;;;;5033625;28;20060;-77
2023/05/25 06:27:45;;;;;;;12.95;6.07;;;;;;;;;;5033259;28;20055;-77
2023/05/25 06:30:11;;;;;;;12.75;5.32;;;;;;;;;;5034736;28;20041;-77
2023/05/25 06:32:38;;;;;;;14.52;5.03;;;;;;;;;;5035047;28;20051;-77
2023/05/25 06:35:04;;;;;;;16.85;6.28;;;;;;;;;;5052622;28;20041;-77
2023/05/25 06:37:36;;;;;;;16.48;6.85;;;;;;;;;;5052818;28;20041;-77
2023/05/25 06:40:04;;;;;;;15.60;6.72;;;;;;;;;;5052817;28;20072;-77
2023/05/25 06:42:30;;;;;;;20.10;5.72;;;;;;;;;;5034912;28;20045;-77
2023/05/25 06:44:56;;;;;;;20.70;5.68;;;;;;;;;;5052329;28;20052;-77
2023/05/25 06:47:22;;;;;;;16.42;6.20;;;;;;;;;;5034497;28;20045;-77
2023/05/25 06:49:48;;;;;;;11.63;5.60;;;;;;;;;;5052360;28;20033;-77
2023/05/25 06:52:14;;;;;;;13.95;5.82;;;;;;;;;;5051151;28;20048;-77
2023/05/25 06:54:40;;;;;;;16.17;5.65;;;;;;;;;;5052246;28;20049;-77
2023/05/25 06:57:06;;;;;;;17.73;5.47;;;;;;;;;;5052655;28;20467;-77
2023/05/25 06:59:32;;;;;;;17.30;5.90;;;;;;;;;;5023482;28;20053;-77
2023/05/25 07:01:59;;;;;;;19.50;6.93;;;;;;;;;;5015005;28;20037;-77
2023/05/25 07:04:26;;;;;;;17.65;5.72;;;;;;;;;;5014431;28;20091;-77
2023/05/25 07:06:52;;;;;;;14.75;5.32;;;;;;;;;;4998254;28;20156;-77
2023/05/25 07:09:18;;;;;;;20.90;6.97;;;;;;;;;;5032970;28;20041;-77
2023/05/25 07:11:44;;;;;;;18.20;6.07;;;;;;;;;;5020320;28;20068;-77
2023/05/25 07:14:10;;;;;;;16.55;5.10;;;;;;;;;;5034744;28;20045;-77
2023/05/25 07:16:36;;;;;;;19.25;5.95;;;;;;;;;;5035957;28;20134;-77
2023/05/25 07:19:02;;;;;;;16.45;5.72;;;;;;;;;;5034558;28;20053;-77
2023/05/25 07:21:31;;;;;;;21.73;5.28;;;;;;;;;;5036190;28;20053;-77
2023/05/25 07:23:57;;;;;;;14.50;5.10;;;;;;;;;;5034869;28;20037;-77
2023/05/25 07:26:24;;;;;;;21.98;5.35;;;;;;;;;;5018246;28;20049;-77
2023/05/25 07:28:50;;;;;;;16.88;5.53;;;;;;;;;;5034703;28;20057;-77
2023/05/25 07:31:17;;;;;;;13.98;4.78;;;;;;;;;;5034352;28;20484;-77
2023/05/25 07:33:43;;;;;;;17.85;5.35;;;;;;;;;;5034476;28;20428;-77
2023/05/25 07:36:09;;;;;;;14.45;4.93;;;;;;;;;;5035880;28;20424;-77
2023/05/25 07:38:36;;;;;;;16.77;6.13;;;;;;;;;;5036109;28;20048;-77
2023/05/25 07:41:02;;;;;;;15.18;4.75;;;;;;;;;;5018096;28;20501;-77
2023/05/25 07:43:28;;;;;;;18.73;5.00;;;;;;;;;;5035955;28;20511;-77
2023/05/25 07:45:54;;;;;;;16.40;5.20;;;;;;;;;;5034484;28;20041;-77
2023/05/25 07:48:20;;;;;;;19.70;6.00;;;;;;;;;;5034127;28;20512;-77
2023/05/25 07:50:46;;;;;;;18.60;5.47;;;;;;;;;;5021233;28;20065;-77
2023/05/25 07:53:12;;;;;;;16.00;4.22;;;;;;;;;;5047561;28;20500;-77
2023/05/25 07:55:38;;;;;;;17.05;4.82;;;;;;;;;;5015728;28;20100;-77
2023/05/25 07:58:06;;;;;;;19.27;5.38;;;;;;;;;;5014224;28;20046;-77
2023/05/25 08:00:32;;;;;;;20.45;5.57;;;;;;;;;;5034385;28;20060;-77
2023/05/25 08:02:58;;;;;;;14.18;4.45;;;;;;;;;;5035527;28;20045;-77
2023/05/25 08:05:25;;;;;;;26.10;5.65;;;;;;;;;;5034067;28;20045;-77
2023/05/25 08:07:51;;;;;;;14.25;4.70;;;;;;;;;;5033883;28;20055;-77
2023/05/25 08:10:17;;;;;;;14.80;4.75;;;;;;;;;;5035120;28;20041;-77
2023/05/25 08:12:43;;;;;;;16.38;5.20;;;;;;;;;;5036930;28;20049;-77
2023/05/25 08:15:09;;;;;;;14.18;5.05;;;;;;;;;;5037432;28;20057;-77
2023/05/25 08:17:35;;;;;;;15.75;4.65;;;;;;;;;;5037034;28;20053;-77
2023/05/25 08:20:04;;;;;;;18.90;4.57;;;;;;;;;;5037072;28;20057;-77
2023/05/25 08:22:30;;;;;;;20.40;5.25;;;;;;;;;;5036576;28;20053;-77
2023/05/25 08:24:56;;;;;;;15.25;4.97;;;;;;;;;;5055151;28;20099;-77
2023/05/25 08:27:22;;;;;;;18.38;5.85;;;;;;;;;;5037750;28;20049;-77
2023/05/25 08:29:48;;;;;;;18.58;5.50;;;;;;;;;;5058159;28;20095;-77
2023/05/25 08:32:14;;;;;;;14.98;4.30;;;;;;;;;;5039824;28;20124;-76
2023/05/25 08:34:40;;;;;;;19.90;4.93;;;;;;;;;;5038393;28;20045;-76
2023/05/25 08:37:06;;;;;;;17.42;4.97;;;;;;;;;;5055365;28;20048;-76
2023/05/25 08:39:32;;;;;;;13.93;4.72;;;;;;;;;;5036865;28;20103;-77
2023/05/25 08:41:58;;;;;;;17.27;5.25;;;;;;;;;;5036746;28;20124;-77
2023/05/25 08:44:26;;;;;;;15.63;4.65;;;;;;;;;;5054363;28;20076;-77
2023/05/25 08:46:52;;;;;;;13.85;4.53;;;;;;;;;;5036906;28;20487;-77
2023/05/25 08:49:18;;;;;;;14.82;4.15;;;;;;;;;;5051709;28;20068;-77
2023/05/25 08:51:54;;;;;;;20.83;4.70;;;;;;;;;;5034574;28;20053;-77
2023/05/25 08:54:29;;;;;;;16.00;4.38;;;;;;;;;;5034066;28;20049;-76
2023/05/25 08:56:58;;;;;;;18.40;4.82;;;;;;;;;;5034423;28;20128;-76
2023/05/25 08:59:24;;;;;;;13.60;4.28;;;;;;;;;;5034232;28;20112;-76
2023/05/25 09:01:53;;;;;;;17.05;4.63;;;;;;;;;;5034029;28;20380;-77
2023/05/25 09:04:20;;;;;;;15.98;4.32;;;;;;;;;;5032798;28;20053;-76
2023/05/25 09:06:47;;;;;;;15.13;4.47;;;;;;;;;;5033182;28;20110;-77
2023/05/25 09:09:13;;;;;;;15.45;5.15;;;;;;;;;;5034023;28;20052;-77
2023/05/25 09:11:42;;;;;;;19.48;4.80;;;;;;;;;;5038471;28;20055;-77
2023/05/25 09:14:08;;;;;;;15.13;4.97;;;;;;;;;;5053979;28;20048;-77
2023/05/25 09:16:36;;;;;;;13.30;4.88;;;;;;;;;;5036025;28;20137;-77
2023/05/25 09:19:02;;;;;;;17.08;4.97;;;;;;;;;;5019243;28;20049;-77
2023/05/25 09:21:28;;;;;;;19.10;5.05;;;;;;;;;;5035744;28;20040;-77
2023/05/25 09:23:54;;;;;;;22.52;5.65;;;;;;;;;;5035893;28;20060;-77
2023/05/25 09:26:20;;;;;;;22.30;6.25;;;;;;;;;;5036004;28;20049;-77
2023/05/25 09:28:47;;;;;;;24.13;5.80;;;;;;;;;;5019109;28;20044;-77
2023/05/25 09:31:16;;;;;;;20.58;5.68;;;;;;;;;;5053544;28;20120;-77
2023/05/25 09:33:42;;;;;;;14.63;5.25;;;;;;;;;;5035260;28;20101;-77
2023/05/25 09:36:08;;;;;;;19.55;4.68;;;;;;;;;;5035697;28;20430;-77
2023/05/25 09:38:35;;;;;;;16.67;5.05;;;;;;;;;;5035597;28;20129;-77
2023/05/25 09:41:01;;;;;;;13.90;5.05;;;;;;;;;;5018915;28;20175;-76
2023/05/25 09:43:27;;;;;;;19.90;5.30;;;;;;;;;;5053745;28;20048;-77
2023/05/25 09:45:53;;;;;;;20.08;5.13;;;;;;;;;;5035341;28;20045;-77
2023/05/25 09:48:21;;;;;;;18.48;4.90;;;;;;;;;;5019225;28;20051;-77
2023/05/25 09:50:48;;;;;;;26.35;5.45;;;;;;;;;;5031881;28;20048;-77
2023/05/25 09:53:14;;;;;;;19.23;5.13;;;;;;;;;;4999572;28;20103;-77
2023/05/25 09:55:40;;;;;;;18.27;5.53;;;;;;;;;;5015504;28;20045;-76
2023/05/25 09:58:07;;;;;;;19.70;5.55;;;;;;;;;;5015707;28;20041;-77
2023/05/25 10:00:33;;;;;;;18.67;4.47;;;;;;;;;;5052506;28;20056;-77
2023/05/25 10:02:59;;;;;;;22.45;6.85;;;;;;;;;;5053472;28;20037;-77
2023/05/25 10:05:25;;;;;;;17.00;4.43;;;;;;;;;;5053047;28;20487;-77
2023/05/25 10:07:53;;;;;;;18.73;4.90;;;;;;;;;;5034876;28;20091;-77
2023/05/25 10:10:19;;;;;;;19.27;5.63;;;;;;;;;;5052623;28;20455;-77
2023/05/25 10:12:48;;;;;;;19.85;5.63;;;;;;;;;;5053022;28;20387;-77
2023/05/25 10:15:15;;;;;;;14.07;4.53;;;;;;;;;;5052990;28;20381;-77
2023/05/25 10:17:50;;;;;;;18.75;5.32;;;;;;;;;;5053069;28;20051;-77
2023/05/25 10:20:16;;;;;;;22.50;5.23;;;;;;;;;;5051486;28;20123;-77
2023/05/25 10:22:44;;;;;;;13.80;5.07;;;;;;;;;;5034896;28;20140;-77
2023/05/25 10:25:17;;;;;;;18.10;5.30;;;;;;;;;;5052731;28;20067;-77
2023/05/25 10:27:47;;;;;;;20.77;5.35;;;;;;;;;;5053030;28;20041;-77
2023/05/25 10:30:17;;;;;;;18.52;5.65;;;;;;;;;;5052728;28;20056;-77
2023/05/25 10:32:44;;;;;;;20.98;5.60;;;;;;;;;;5052618;28;20590;-77
2023/05/25 10:35:10;;;;;;;22.48;6.22;;;;;;;;;;5052684;28;20045;-77
2023/05/25 10:37:37;;;;;;;18.75;5.72;;;;;;;;;;5052953;28;20056;-77
2023/05/25 10:40:05;;;;;;;18.33;5.90;;;;;;;;;;5053006;28;20087;-77
2023/05/25 10:42:33;;;;;;;22.17;5.82;;;;;;;;;;5052459;28;20147;-76
2023/05/25 10:45:08;;;;;;;17.23;4.80;;;;;;;;;;5054505;28;20053;-77
2023/05/25 10:47:40;;;;;;;25.65;6.43;;;;;;;;;;5056589;28;20159;-77
2023/05/25 10:50:07;;;;;;;15.80;5.32;;;;;;;;;;5056332;28;20399;-76
2023/05/25 10:52:34;;;;;;;22.50;5.68;;;;;;;;;;5057159;28;20102;-76
2023/05/25 10:55:03;;;;;;;23.45;7.10;;;;;;;;;;5038923;28;20348;-76
2023/05/25 10:57:29;;;;;;;18.88;5.82;;;;;;;;;;5056415;28;20487;-77
2023/05/25 11:00:00;;;;;;;15.70;5.28;;;;;;;;;;5056031;28;20054;-77
2023/05/25 11:02:27;;;;;;;15.75;4.75;;;;;;;;;;5055313;28;20455;-77
2023/05/25 11:05:22;;;;;;;25.05;6.63;;;;;;;;;;5056474;28;20094;-77
2023/05/25 11:07:52;;;;;;;20.90;5.03;;;;;;;;;;5042992;28;20103;-77
2023/05/25 11:10:38;;;;;;;21.20;5.00;;;;;;;;;;5055898;28;20392;-77
2023/05/25 11:13:23;;;;;;;11.88;4.15;;;;;;;;;;5055768;28;20060;-77
2023/05/25 11:16:08;;;;;;;21.10;5.88;;;;;;;;;;5056325;28;20082;-77
2023/05/25 11:18:37;;;;;;;22.52;5.72;;;;;;;;;;5038452;28;20329;-77
2023/05/25 11:21:11;;;;;;;20.98;5.55;;;;;;;;;;5055801;28;20395;-77
2023/05/25 11:23:38;;;;;;;19.83;5.47;;;;;;;;;;5056198;28;20072;-77
2023/05/25 11:26:05;;;;;;;17.10;5.32;;;;;;;;;;5056080;28;20087;-77
2023/05/25 11:28:32;;;;;;;24.35;6.22;;;;;;;;;;5055870;28;20057;-77
2023/05/25 11:31:00;;;;;;;14.60;5.50;;;;;;;;;;5055871;28;20067;-77
2023/05/25 11:33:27;;;;;;;21.52;5.70;;;;;;;;;;5055703;28;20510;-77
2023/05/25 11:35:54;;;;;;;27.17;6.78;;;;;;;;;;5055752;28;20428;-77
2023/05/25 11:38:24;;;;;;;17.38;4.78;;;;;;;;;;5056091;28;20495;-77
2023/05/25 11:40:50;;;;;;;17.45;4.95;;;;;;;;;;5058038;28;20044;-76
2023/05/25 11:43:17;;;;;;;21.38;6.47;;;;;;;;;;5041932;28;20422;-77
2023/05/25 11:45:43;;;;;;;24.88;7.07;;;;;;;;;;5059224;28;20041;-77
2023/05/25 11:48:13;;;;;;;22.83;6.00;;;;;;;;;;5055843;28;20159;-76
2023/05/25 11:50:39;;;;;;;23.95;7.03;;;;;;;;;;5055778;28;20044;-77
2023/05/25 11:53:06;;;;;;;19.88;5.65;;;;;;;;;;5037720;28;20125;-77
2023/05/25 11:55:32;;;;;;;20.42;6.22;;;;;;;;;;5037012;28;20099;-77
2023/05/25 11:57:58;;;;;;;22.52;5.88;;;;;;;;;;5037063;28;20056;-77
2023/05/25 12:00:25;;;;;;;22.95;8.35;;;;;;;;;;5039192;28;20056;-77
2023/05/25 12:02:51;;;;;;;20.42;6.72;;;;;;;;;;5055274;28;20049;-77
2023/05/25 12:05:17;;;;;;;24.00;6.13;;;;;;;;;;5055397;28;20047;-77
2023/05/25 12:07:45;;;;;;;21.95;6.25;;;;;;;;;;5037604;28;20403;-77
2023/05/25 12:10:12;;;;;;;17.40;6.15;;;;;;;;;;5037227;28;20049;-77
2023/05/25 12:12:45;;;;;;;18.98;5.70;;;;;;;;;;5055175;28;20053;-77
2023/05/25 12:15:13;;;;;;;24.33;6.00;;;;;;;;;;5055073;28;20061;-77
2023/05/25 12:17:43;;;;;;;16.75;5.78;;;;;;;;;;5037284;28;20044;-77
2023/05/25 12:20:14;;;;;;;23.98;6.40;;;;;;;;;;5055258;28;20139;-77
2023/05/25 12:22:40;;;;;;;23.02;6.25;;;;;;;;;;5055119;28;20052;-77
2023/05/25 12:25:07;;;;;;;20.33;5.00;;;;;;;;;;5054704;28;20091;-77
2023/05/25 12:27:34;;;;;;;23.50;6.25;;;;;;;;;;5037038;28;20053;-77
2023/05/25 12:30:00;;;;;;;22.00;6.43;;;;;;;;;;5054546;28;20499;-77
2023/05/25 12:32:26;;;;;;;20.38;5.97;;;;;;;;;;5036700;28;20048;-77
2023/05/25 12:35:00;;;;;;;19.95;4.75;;;;;;;;;;5036707;28;20045;-77
2023/05/25 12:37:26;;;;;;;20.80;6.35;;;;;;;;;;5054596;28;20515;-77
2023/05/25 12:39:52;;;;;;;21.23;5.75;;;;;;;;;;5054507;28;20080;-77
2023/05/25 12:42:18;;;;;;;19.58;6.35;;;;;;;;;;5054587;28;20076;-77
2023/05/25 12:44:45;;;;;;;19.52;5.78;;;;;;;;;;5054420;28;20076;-77
2023/05/25 12:47:12;;;;;;;20.15;5.35;;;;;;;;;;5054488;28;20040;-77
2023/05/25 12:49:39;;;;;;;18.20;5.70;;;;;;;;;;5054219;28;20442;-77
2023/05/25 12:52:06;;;;;;;17.40;5.20;;;;;;;;;;5054483;28;20045;-77
2023/05/25 12:54:39;;;;;;;28.70;6.38;;;;;;;;;;5036172;28;20116;-77
2023/05/25 12:57:06;;;;;;;18.20;6.00;;;;;;;;;;5054593;28;20065;-77
2023/05/25 12:59:32;;;;;;;16.55;5.57;;;;;;;;;;5053764;28;20442;-77
2023/05/25 13:01:59;;;;;;;16.95;4.85;;;;;;;;;;5053998;28;20041;-77
2023/05/25 13:04:26;;;;;;;16.10;5.13;;;;;;;;;;5054151;28;20088;-77
2023/05/25 13:06:52;;;;;;;21.38;5.30;;;;;;;;;;5053944;28;20045;-77
2023/05/25 13:09:19;;;;;;;19.75;6.32;;;;;;;;;;5053900;28;20044;-77
2023/05/25 13:11:45;;;;;;;18.10;5.53;;;;;;;;;;5053942;28;20045;-77
2023/05/25 13:14:11;;;;;;;19.35;5.38;;;;;;;;;;5053644;28;20103;-77
2023/05/25 13:16:37;;;;;;;16.70;4.90;;;;;;;;;;5053973;28;20048;-77
2023/05/25 13:19:03;;;;;;;17.67;5.90;;;;;;;;;;5035822;28;20055;-77
2023/05/25 13:21:29;;;;;;;19.48;5.50;;;;;;;;;;5054075;28;20037;-77
2023/05/25 13:23:55;;;;;;;19.60;5.22;;;;;;;;;;5054180;28;20045;-77
2023/05/25 13:26:21;;;;;;;17.45;5.15;;;;;;;;;;5035856;28;20045;-77
2023/05/25 13:28:48;;;;;;;18.80;5.50;;;;;;;;;;5053813;28;20095;-77
2023/05/25 13:31:14;;;;;;;16.67;4.60;;;;;;;;;;5053344;28;20480;-77
2023/05/25 13:33:40;;;;;;;21.20;4.97;;;;;;;;;;5035949;28;20079;-76
2023/05/25 13:36:09;;;;;;;18.75;4.97;;;;;;;;;;5035428;28;20472;-77
2023/05/25 13:38:35;;;;;;;20.08;5.20;;;;;;;;;;5035465;28;20056;-77
2023/05/25 13:41:02;;;;;;;15.23;4.97;;;;;;;;;;5035733;28;20044;-77
2023/05/25 13:43:28;;;;;;;17.35;5.10;;;;;;;;;;5035370;28;20041;-77
2023/05/25 13:45:54;;;;;;;16.23;4.05;;;;;;;;;;5035526;28;20045;-77
2023/05/25 13:48:21;;;;;;;24.08;5.47;;;;;;;;;;5035520;28;20087;-77
2023/05/25 13:50:48;;;;;;;16.38;5.13;;;;;;;;;;5052141;28;20056;-77
2023/05/25 13:53:14;;;;;;;14.05;4.93;;;;;;;;;;5035806;28;20356;-77
2023/05/25 13:55:40;;;;;;;16.10;5.22;;;;;;;;;;5053430;28;20041;-77
2023/05/25 13:58:06;;;;;;;18.77;5.55;;;;;;;;;;5053314;28;20049;-77
2023/05/25 14:00:32;;;;;;;19.80;5.32;;;;;;;;;;5035340;28;20056;-77
2023/05/25 14:02:59;;;;;;;19.60;5.35;;;;;;;;;;5053128;28;20372;-77
2023/05/25 14:05:25;;;;;;;19.35;6.82;;;;;;;;;;5034588;28;20489;-77
2023/05/25 14:07:51;;;;;;;22.38;5.45;;;;;;;;;;5035138;28;20052;-77
2023/05/25 14:10:17;;;;;;;17.98;5.70;;;;;;;;;;5035194;28;20124;-77
2023/05/25 14:12:43;;;;;;;17.45;5.00;;;;;;;;;;5034746;28;20060;-77
2023/05/25 14:15:10;;;;;;;17.98;6.07;;;;;;;;;;5053407;28;20083;-77
2023/05/25 14:17:36;;;;;;;26.65;6.80;;;;;;;;;;5053206;28;20440;-77
2023/05/25 14:20:02;;;;;;;20.05;6.13;;;;;;;;;;5052287;28;20053;-77
2023/05/25 14:22:29;;;;;;;17.02;5.72;;;;;;;;;;5034936;28;20103;-76
2023/05/25 14:24:55;;;;;;;19.10;5.53;;;;;;;;;;5034927;28;20053;-77